67TA weather

CLOSED Tips Jewels Heliport
Bulverde, Texas, United States

Public forecast

Using degrees Fahrenheit for public forecast. Weather courtesy of forecast.io.

METAR (pilot weather report)

Closest report is San Antonio International Airport, 7.4 nm (13.7 km) S. Retrieved 2019/07/19 13:51 UTC (16 minutes ago):

KSAT 191351Z 16014KT 10SM BKN015 BKN027 27/22 A3001 RMK AO2 SLP143 T02720222

TAF (pilot weather forecast)

Closest forecast is San Antonio International Airport, 7.4 nm (13.7 km) S. Retrieved 2019/07/19 12:36 UTC (2 hours ago):

TAF KSAT 191134Z 1912/2018 17010KT P6SM BKN010 FM191400 16013G23KT P6SM SCT025 FM192100 14014KT P6SM FEW050 SCT250 FM200400 18011KT P6SM FEW250